Time;durP1;ratioP1;P1;durP2;ratioP2;P2;SDS_P1;SDS_P2;PMS_P1;PMS_P2;Temp;Humidity;BMP_temperature;BMP_pressure;BME280_temperature;BME280_humidity;BME280_pressure;Samples;Min_cycle;Max_cycle;Signal;HPM_P1;HPM_P2
2022/11/23 00:01:20;;;;;;;10.55;7.00;;;;;;;;;;4994361;28;20053;-77
2022/11/23 00:03:47;;;;;;;11.82;7.32;;;;;;;;;;4977616;28;20347;-77
2022/11/23 00:06:13;;;;;;;13.82;7.97;;;;;;;;;;4995400;28;20022;-77
2022/11/23 00:08:39;;;;;;;14.05;7.75;;;;;;;;;;4995153;28;20057;-77
2022/11/23 00:11:05;;;;;;;10.90;6.97;;;;;;;;;;4995318;28;20030;-77
2022/11/23 00:13:34;;;;;;;12.45;7.70;;;;;;;;;;4995229;28;20034;-77
2022/11/23 00:16:00;;;;;;;14.20;7.85;;;;;;;;;;4995752;28;20113;-77
2022/11/23 00:18:26;;;;;;;12.00;7.30;;;;;;;;;;4994654;28;20145;-77
2022/11/23 00:20:52;;;;;;;13.35;7.93;;;;;;;;;;4995080;28;20148;-77
2022/11/23 00:23:18;;;;;;;12.75;7.32;;;;;;;;;;4995123;28;20034;-77
2022/11/23 00:25:45;;;;;;;16.23;8.48;;;;;;;;;;4977804;28;20036;-77
2022/11/23 00:28:11;;;;;;;12.98;7.32;;;;;;;;;;4995297;28;20022;-77
2022/11/23 00:30:37;;;;;;;14.75;7.78;;;;;;;;;;4995236;28;20033;-77
2022/11/23 00:33:03;;;;;;;12.05;7.80;;;;;;;;;;4994889;28;20034;-77
2022/11/23 00:35:29;;;;;;;11.93;7.00;;;;;;;;;;4994964;28;20497;-78
2022/11/23 00:37:55;;;;;;;15.10;8.38;;;;;;;;;;4995029;28;20081;-77
2022/11/23 00:40:21;;;;;;;13.63;8.23;;;;;;;;;;4994984;28;20465;-78
2022/11/23 00:42:47;;;;;;;11.70;7.57;;;;;;;;;;4994560;28;20026;-77
2022/11/23 00:45:13;;;;;;;17.38;8.50;;;;;;;;;;4994615;28;20022;-77
2022/11/23 00:47:39;;;;;;;15.95;8.02;;;;;;;;;;4994539;28;20393;-77
2022/11/23 00:50:05;;;;;;;13.15;8.25;;;;;;;;;;4994789;28;20106;-78
2022/11/23 00:52:31;;;;;;;15.23;8.70;;;;;;;;;;4994788;28;20035;-77
2022/11/23 00:54:57;;;;;;;14.18;7.93;;;;;;;;;;4994228;28;20153;-78
2022/11/23 00:57:23;;;;;;;14.02;7.22;;;;;;;;;;4994584;28;20030;-77
2022/11/23 00:59:49;;;;;;;15.40;7.93;;;;;;;;;;4994528;28;20076;-77
2022/11/23 01:02:15;;;;;;;17.20;8.90;;;;;;;;;;4994862;28;20037;-77
2022/11/23 01:04:41;;;;;;;16.70;8.35;;;;;;;;;;4994438;28;20045;-77
2022/11/23 01:07:07;;;;;;;16.95;9.35;;;;;;;;;;4994670;28;20081;-77
2022/11/23 01:09:33;;;;;;;16.77;9.60;;;;;;;;;;4994527;28;20041;-77
2022/11/23 01:11:59;;;;;;;17.15;9.85;;;;;;;;;;4994503;28;20453;-77
2022/11/23 01:14:25;;;;;;;16.35;8.82;;;;;;;;;;4994485;28;20058;-77
2022/11/23 01:16:51;;;;;;;19.05;9.57;;;;;;;;;;4994751;28;20022;-77
2022/11/23 01:19:18;;;;;;;20.10;10.88;;;;;;;;;;4994696;28;20129;-78
2022/11/23 01:21:44;;;;;;;18.85;10.05;;;;;;;;;;4994344;28;20026;-78
2022/11/23 01:24:15;;;;;;;16.88;9.63;;;;;;;;;;4994414;28;20023;-77
2022/11/23 01:26:41;;;;;;;20.20;11.20;;;;;;;;;;4994495;28;20023;-77
2022/11/23 01:29:07;;;;;;;20.02;10.07;;;;;;;;;;4984302;28;20521;-77
2022/11/23 01:31:33;;;;;;;17.60;10.38;;;;;;;;;;4974722;28;20027;-78
2022/11/23 01:34:00;;;;;;;23.35;10.43;;;;;;;;;;4974742;28;20157;-77
2022/11/23 01:36:27;;;;;;;18.42;9.98;;;;;;;;;;4974757;28;20084;-77
2022/11/23 01:38:53;;;;;;;18.23;10.82;;;;;;;;;;4975244;28;20027;-77
2022/11/23 01:41:21;;;;;;;20.42;9.80;;;;;;;;;;4974660;28;20049;-77
2022/11/23 01:43:48;;;;;;;20.70;10.45;;;;;;;;;;4978453;28;20031;-78
2022/11/23 01:46:14;;;;;;;20.45;9.82;;;;;;;;;;4993954;28;20401;-77
2022/11/23 01:48:43;;;;;;;18.30;10.32;;;;;;;;;;4994040;28;20110;-77
2022/11/23 01:51:12;;;;;;;25.65;11.52;;;;;;;;;;4993958;28;20026;-77
2022/11/23 01:53:38;;;;;;;21.88;11.20;;;;;;;;;;4994118;28;20030;-78
2022/11/23 01:56:05;;;;;;;24.02;11.50;;;;;;;;;;4993957;28;20027;-77
2022/11/23 01:58:32;;;;;;;24.75;11.68;;;;;;;;;;4994112;28;20036;-78
2022/11/23 02:00:59;;;;;;;23.83;11.82;;;;;;;;;;4994103;28;20076;-78
2022/11/23 02:03:25;;;;;;;24.67;11.95;;;;;;;;;;4993881;28;20106;-78
2022/11/23 02:05:58;;;;;;;24.88;12.48;;;;;;;;;;4993622;28;20098;-77
2022/11/23 02:08:24;;;;;;;26.92;11.48;;;;;;;;;;4994497;28;20018;-77
2022/11/23 02:10:50;;;;;;;19.65;11.82;;;;;;;;;;4994009;28;20064;-77
2022/11/23 02:13:16;;;;;;;23.30;12.13;;;;;;;;;;4994624;28;20041;-77
2022/11/23 02:15:42;;;;;;;23.33;12.77;;;;;;;;;;4993848;28;20046;-78
2022/11/23 02:18:15;;;;;;;25.23;12.70;;;;;;;;;;4993790;28;20389;-77
2022/11/23 02:20:42;;;;;;;27.10;13.00;;;;;;;;;;4974722;28;20056;-77
2022/11/23 02:23:20;;;;;;;27.77;13.20;;;;;;;;;;5001248;28;20041;-78
2022/11/23 02:25:46;;;;;;;24.20;11.85;;;;;;;;;;4993579;28;20026;-78
2022/11/23 02:28:14;;;;;;;24.50;12.77;;;;;;;;;;4995960;28;20040;-77
2022/11/23 02:30:40;;;;;;;24.63;12.85;;;;;;;;;;5012988;28;20549;-77
2022/11/23 02:33:06;;;;;;;23.45;12.82;;;;;;;;;;5013360;28;20071;-78
2022/11/23 02:35:33;;;;;;;27.00;13.30;;;;;;;;;;5013149;28;20041;-77
2022/11/23 02:38:00;;;;;;;27.08;13.13;;;;;;;;;;5013455;28;20025;-77
2022/11/23 02:40:31;;;;;;;25.23;12.73;;;;;;;;;;4973282;28;20026;-77
2022/11/23 02:42:57;;;;;;;26.00;13.40;;;;;;;;;;4977879;28;20065;-77
2022/11/23 02:45:40;;;;;;;30.98;13.45;;;;;;;;;;4977695;28;20039;-78
2022/11/23 02:48:06;;;;;;;35.88;14.35;;;;;;;;;;4977617;28;20408;-77
2022/11/23 02:50:32;;;;;;;30.38;13.85;;;;;;;;;;4977730;28;20031;-78
2022/11/23 02:52:58;;;;;;;26.98;13.90;;;;;;;;;;4977948;28;20404;-77
2022/11/23 02:55:25;;;;;;;31.08;15.05;;;;;;;;;;4977733;28;20461;-78
2022/11/23 02:57:51;;;;;;;31.67;15.30;;;;;;;;;;5013611;28;20041;-78
2022/11/23 03:00:17;;;;;;;30.88;14.13;;;;;;;;;;5016521;28;20034;-77
2022/11/23 03:02:43;;;;;;;30.27;14.85;;;;;;;;;;5016207;28;20102;-77
2022/11/23 03:05:09;;;;;;;31.55;14.60;;;;;;;;;;5016332;28;20049;-78
2022/11/23 03:07:36;;;;;;;32.33;14.68;;;;;;;;;;5015805;28;20464;-77
2022/11/23 03:10:02;;;;;;;26.83;13.70;;;;;;;;;;5016636;28;20030;-78
2022/11/23 03:12:28;;;;;;;30.08;14.82;;;;;;;;;;5016236;28;20028;-77
2022/11/23 03:14:54;;;;;;;29.33;14.68;;;;;;;;;;5016322;28;20026;-78
2022/11/23 03:17:20;;;;;;;27.23;13.80;;;;;;;;;;5016207;28;20034;-78
2022/11/23 03:19:46;;;;;;;32.60;15.25;;;;;;;;;;5016064;28;20579;-78
2022/11/23 03:22:12;;;;;;;29.05;15.15;;;;;;;;;;5015777;28;20026;-77
2022/11/23 03:24:38;;;;;;;32.88;14.82;;;;;;;;;;5011556;28;20042;-78
2022/11/23 03:27:04;;;;;;;31.48;15.32;;;;;;;;;;4996469;28;20346;-78
2022/11/23 03:29:30;;;;;;;31.98;15.52;;;;;;;;;;4996683;28;20073;-78
2022/11/23 03:31:56;;;;;;;30.70;14.57;;;;;;;;;;4982301;28;20489;-78
2022/11/23 03:34:22;;;;;;;33.65;15.23;;;;;;;;;;4985659;28;20113;-77
2022/11/23 03:36:48;;;;;;;35.15;15.55;;;;;;;;;;4996254;28;20085;-78
2022/11/23 03:39:14;;;;;;;36.90;17.40;;;;;;;;;;4996001;28;20030;-78
2022/11/23 03:41:40;;;;;;;28.95;14.93;;;;;;;;;;4996147;28;20069;-77
2022/11/23 03:44:06;;;;;;;29.75;15.80;;;;;;;;;;4995931;28;20022;-78
2022/11/23 03:46:32;;;;;;;31.80;15.32;;;;;;;;;;4995672;28;20066;-78
2022/11/23 03:48:58;;;;;;;36.65;15.68;;;;;;;;;;4993837;28;20439;-77
2022/11/23 03:51:24;;;;;;;35.13;15.95;;;;;;;;;;4984085;28;20034;-77
2022/11/23 03:53:50;;;;;;;29.60;15.30;;;;;;;;;;4995753;28;20026;-78
2022/11/23 03:56:16;;;;;;;32.75;15.25;;;;;;;;;;4995893;28;20396;-77
2022/11/23 03:58:42;;;;;;;29.08;14.90;;;;;;;;;;4995814;28;20422;-78
2022/11/23 04:01:08;;;;;;;34.97;14.93;;;;;;;;;;4995707;28;20507;-78
2022/11/23 04:03:34;;;;;;;30.75;15.35;;;;;;;;;;4980802;28;20023;-77
2022/11/23 04:06:00;;;;;;;36.67;17.00;;;;;;;;;;4976068;28;20033;-78
2022/11/23 04:08:26;;;;;;;32.05;15.00;;;;;;;;;;4981528;28;20049;-77
2022/11/23 04:10:56;;;;;;;32.40;15.45;;;;;;;;;;4986858;28;20038;-77
2022/11/23 04:13:22;;;;;;;35.53;15.18;;;;;;;;;;4988155;28;20054;-78
2022/11/23 04:15:48;;;;;;;30.77;15.98;;;;;;;;;;4987904;28;20094;-78
2022/11/23 04:18:14;;;;;;;29.23;14.18;;;;;;;;;;4975902;28;20110;-78
2022/11/23 04:20:40;;;;;;;27.65;15.25;;;;;;;;;;4975660;28;20019;-77
2022/11/23 04:23:06;;;;;;;101.28;19.98;;;;;;;;;;4975883;28;20544;-78
2022/11/23 04:25:32;;;;;;;47.03;15.95;;;;;;;;;;4975793;28;20138;-77
2022/11/23 04:27:58;;;;;;;29.73;13.73;;;;;;;;;;4975826;28;20023;-78
2022/11/23 04:30:24;;;;;;;27.23;14.55;;;;;;;;;;4975429;28;20046;-78
2022/11/23 04:32:50;;;;;;;33.42;15.23;;;;;;;;;;4994201;28;20144;-77
2022/11/23 04:35:16;;;;;;;29.33;13.48;;;;;;;;;;5014868;28;20559;-77
2022/11/23 04:37:42;;;;;;;34.58;14.32;;;;;;;;;;5014815;28;20029;-77
2022/11/23 04:40:09;;;;;;;26.42;12.90;;;;;;;;;;5014454;28;20096;-78
2022/11/23 04:42:35;;;;;;;30.08;13.32;;;;;;;;;;5014890;28;20453;-77
2022/11/23 04:45:01;;;;;;;26.52;13.35;;;;;;;;;;5011314;28;20042;-77
2022/11/23 04:47:27;;;;;;;22.98;12.80;;;;;;;;;;4994710;28;20138;-77
2022/11/23 04:49:53;;;;;;;27.02;12.15;;;;;;;;;;4994645;28;20109;-78
2022/11/23 04:52:19;;;;;;;26.33;12.80;;;;;;;;;;4995000;28;20361;-78
2022/11/23 04:54:45;;;;;;;28.95;12.18;;;;;;;;;;4994669;28;20038;-78
2022/11/23 04:57:11;;;;;;;27.90;12.52;;;;;;;;;;4994746;28;20560;-77
2022/11/23 04:59:36;;;;;;;28.20;12.23;;;;;;;;;;4997068;28;20025;-77
2022/11/23 05:02:02;;;;;;;27.90;12.23;;;;;;;;;;5014105;28;20030;-77
2022/11/23 05:04:28;;;;;;;26.63;12.20;;;;;;;;;;5013735;28;20475;-78
2022/11/23 05:06:54;;;;;;;27.08;12.18;;;;;;;;;;4999893;28;20034;-78
2022/11/23 05:09:20;;;;;;;23.50;11.30;;;;;;;;;;4994695;28;20026;-77
2022/11/23 05:11:47;;;;;;;24.77;11.48;;;;;;;;;;4990834;28;20045;-77
2022/11/23 05:14:13;;;;;;;28.65;13.48;;;;;;;;;;4974646;28;20178;-77
2022/11/23 05:16:40;;;;;;;27.02;12.23;;;;;;;;;;4994771;28;20080;-77
2022/11/23 05:19:06;;;;;;;29.98;13.18;;;;;;;;;;5014123;28;20064;-77
2022/11/23 05:21:32;;;;;;;28.20;13.13;;;;;;;;;;4995650;28;20113;-78
2022/11/23 05:23:58;;;;;;;26.33;12.52;;;;;;;;;;4989698;28;20034;-77
2022/11/23 05:26:24;;;;;;;33.80;13.73;;;;;;;;;;4974625;28;20038;-77
2022/11/23 05:28:50;;;;;;;33.80;14.23;;;;;;;;;;4990527;28;20022;-77
2022/11/23 05:31:16;;;;;;;28.27;13.18;;;;;;;;;;5000772;28;20030;-77
2022/11/23 05:33:42;;;;;;;36.75;14.82;;;;;;;;;;4995091;28;20048;-77
2022/11/23 05:36:08;;;;;;;31.88;14.30;;;;;;;;;;4994060;28;20035;-77
2022/11/23 05:38:34;;;;;;;30.80;13.48;;;;;;;;;;4994035;28;20022;-77
2022/11/23 05:41:00;;;;;;;35.55;14.05;;;;;;;;;;4994016;28;20018;-77
2022/11/23 05:43:26;;;;;;;36.83;14.27;;;;;;;;;;4994126;28;20393;-77
2022/11/23 05:45:52;;;;;;;30.52;14.05;;;;;;;;;;4993435;28;20026;-77
2022/11/23 05:48:18;;;;;;;35.50;15.02;;;;;;;;;;4993921;28;20038;-77
2022/11/23 05:50:44;;;;;;;30.58;14.38;;;;;;;;;;4966126;28;20023;-78
2022/11/23 05:53:10;;;;;;;33.78;14.93;;;;;;;;;;4990962;28;20508;-77
2022/11/23 05:55:36;;;;;;;30.50;14.48;;;;;;;;;;4993927;28;20109;-77
2022/11/23 05:58:02;;;;;;;33.90;14.77;;;;;;;;;;4993745;28;20635;-77
2022/11/23 06:00:28;;;;;;;28.27;13.27;;;;;;;;;;4995595;28;20025;-77
2022/11/23 06:02:58;;;;;;;29.92;13.55;;;;;;;;;;4993607;28;20022;-78
2022/11/23 06:05:24;;;;;;;31.23;13.93;;;;;;;;;;4993452;28;20380;-77
2022/11/23 06:07:52;;;;;;;31.48;14.52;;;;;;;;;;4990435;28;20027;-77
2022/11/23 06:10:18;;;;;;;29.33;14.75;;;;;;;;;;4974251;28;20109;-77
2022/11/23 06:12:44;;;;;;;32.95;15.25;;;;;;;;;;4991226;28;20054;-77
2022/11/23 06:15:10;;;;;;;29.98;14.48;;;;;;;;;;4990475;28;20034;-77
2022/11/23 06:17:37;;;;;;;28.77;13.95;;;;;;;;;;5000027;28;20030;-78
2022/11/23 06:20:04;;;;;;;32.40;15.13;;;;;;;;;;4996328;28;20029;-77
2022/11/23 06:22:30;;;;;;;26.42;13.93;;;;;;;;;;4998392;28;20014;-77
2022/11/23 06:24:56;;;;;;;31.45;14.68;;;;;;;;;;4998739;28;20032;-77
2022/11/23 06:27:21;;;;;;;33.22;14.43;;;;;;;;;;5016075;28;20097;-78
2022/11/23 06:29:47;;;;;;;33.13;15.40;;;;;;;;;;5015987;28;20396;-77
2022/11/23 06:32:14;;;;;;;30.48;14.68;;;;;;;;;;5016207;28;20125;-77
2022/11/23 06:34:40;;;;;;;27.50;13.57;;;;;;;;;;5015592;28;20018;-78
2022/11/23 06:37:06;;;;;;;32.35;13.90;;;;;;;;;;5015849;28;20026;-77
2022/11/23 06:39:32;;;;;;;26.35;13.52;;;;;;;;;;5015657;28;20030;-77
2022/11/23 06:41:58;;;;;;;27.70;13.10;;;;;;;;;;5015780;28;20022;-77
2022/11/23 06:44:24;;;;;;;23.58;12.57;;;;;;;;;;5015590;28;20034;-77
2022/11/23 06:46:50;;;;;;;24.95;12.63;;;;;;;;;;5015322;28;20392;-77
2022/11/23 06:49:18;;;;;;;29.48;13.68;;;;;;;;;;5015528;28;20025;-77
2022/11/23 06:51:45;;;;;;;21.60;11.57;;;;;;;;;;5015654;28;20022;-77
2022/11/23 06:54:11;;;;;;;21.33;10.98;;;;;;;;;;5005290;28;20038;-78
2022/11/23 06:56:37;;;;;;;25.67;11.35;;;;;;;;;;4995744;28;20503;-77
2022/11/23 06:59:03;;;;;;;22.45;10.73;;;;;;;;;;4996065;28;20019;-77
2022/11/23 07:01:29;;;;;;;20.08;11.10;;;;;;;;;;4995611;28;20033;-77
2022/11/23 07:03:55;;;;;;;24.17;11.18;;;;;;;;;;4995655;28;20084;-77
2022/11/23 07:06:21;;;;;;;24.30;10.32;;;;;;;;;;4995917;28;20030;-77
2022/11/23 07:08:47;;;;;;;21.15;10.63;;;;;;;;;;4995639;28;20030;-77
2022/11/23 07:11:14;;;;;;;22.17;11.25;;;;;;;;;;4995591;28;20065;-77
2022/11/23 07:13:40;;;;;;;22.25;10.43;;;;;;;;;;4995724;28;20062;-77
2022/11/23 07:16:06;;;;;;;27.83;11.40;;;;;;;;;;4995855;28;20034;-77
2022/11/23 07:18:32;;;;;;;20.77;10.52;;;;;;;;;;4995690;28;20063;-77
2022/11/23 07:20:59;;;;;;;19.35;8.77;;;;;;;;;;4985670;28;20034;-77
2022/11/23 07:23:25;;;;;;;23.05;10.68;;;;;;;;;;4976031;28;20536;-77
2022/11/23 07:25:51;;;;;;;19.27;10.13;;;;;;;;;;4975603;28;20370;-77
2022/11/23 07:28:18;;;;;;;21.45;10.48;;;;;;;;;;4975838;28;20023;-77
2022/11/23 07:30:45;;;;;;;20.95;11.00;;;;;;;;;;4991285;28;20034;-77
2022/11/23 07:33:12;;;;;;;21.65;10.73;;;;;;;;;;4988278;28;20038;-77
2022/11/23 07:35:38;;;;;;;21.35;10.90;;;;;;;;;;4975628;28;20027;-77
2022/11/23 07:38:08;;;;;;;21.30;11.32;;;;;;;;;;4975720;28;20031;-77
2022/11/23 07:40:36;;;;;;;16.38;9.50;;;;;;;;;;4975925;28;20038;-77
2022/11/23 07:43:03;;;;;;;20.08;10.82;;;;;;;;;;4976855;28;20030;-77
2022/11/23 07:45:29;;;;;;;20.75;9.77;;;;;;;;;;4975905;28;20034;-77
2022/11/23 07:48:05;;;;;;;21.60;10.02;;;;;;;;;;4975517;28;20046;-77
2022/11/23 07:50:32;;;;;;;16.75;8.63;;;;;;;;;;4987701;28;20029;-77
2022/11/23 07:52:58;;;;;;;19.95;10.10;;;;;;;;;;4995354;28;20022;-77
2022/11/23 07:55:24;;;;;;;22.20;9.07;;;;;;;;;;4995744;28;20030;-77
2022/11/23 07:57:53;;;;;;;17.63;9.25;;;;;;;;;;4994646;28;20113;-77
2022/11/23 08:00:20;;;;;;;17.65;10.27;;;;;;;;;;4986313;28;20102;-77
2022/11/23 08:02:46;;;;;;;19.30;10.02;;;;;;;;;;4974990;28;20034;-77
2022/11/23 08:05:12;;;;;;;19.45;9.75;;;;;;;;;;4975093;28;20035;-77
2022/11/23 08:07:38;;;;;;;22.02;9.52;;;;;;;;;;4974913;28;20021;-77
2022/11/23 08:10:04;;;;;;;18.95;9.70;;;;;;;;;;4974732;28;20023;-77
2022/11/23 08:12:31;;;;;;;24.83;9.88;;;;;;;;;;4983111;28;20044;-77
2022/11/23 08:14:57;;;;;;;18.33;9.82;;;;;;;;;;4994437;28;20038;-77
2022/11/23 08:17:23;;;;;;;20.98;10.02;;;;;;;;;;4994188;28;20030;-77
2022/11/23 08:19:49;;;;;;;18.20;9.05;;;;;;;;;;4994083;28;20022;-77
2022/11/23 08:22:15;;;;;;;16.67;9.32;;;;;;;;;;4994361;28;20040;-77
2022/11/23 08:24:41;;;;;;;18.80;9.02;;;;;;;;;;4994708;28;20416;-77
2022/11/23 08:27:07;;;;;;;16.98;8.50;;;;;;;;;;4990033;28;20022;-77
2022/11/23 08:29:33;;;;;;;18.15;8.50;;;;;;;;;;4974744;28;20102;-77
2022/11/23 08:31:59;;;;;;;16.83;8.60;;;;;;;;;;4975014;28;20097;-77
2022/11/23 08:34:25;;;;;;;17.40;8.60;;;;;;;;;;4975036;28;20031;-77
2022/11/23 08:36:51;;;;;;;22.10;10.25;;;;;;;;;;4974320;28;20031;-77
2022/11/23 08:39:18;;;;;;;16.02;8.60;;;;;;;;;;4973222;28;20466;-77
2022/11/23 08:41:44;;;;;;;18.75;8.23;;;;;;;;;;4974400;28;20500;-77
2022/11/23 08:44:11;;;;;;;15.98;8.23;;;;;;;;;;4974197;28;20035;-77
2022/11/23 08:46:37;;;;;;;14.27;7.65;;;;;;;;;;4974177;28;20138;-77
2022/11/23 08:49:04;;;;;;;21.00;9.25;;;;;;;;;;4974124;28;20058;-77
2022/11/23 08:51:30;;;;;;;15.68;8.57;;;;;;;;;;4973959;28;20509;-77
2022/11/23 08:53:56;;;;;;;18.10;8.10;;;;;;;;;;4974790;28;20030;-77
2022/11/23 08:56:22;;;;;;;18.15;7.97;;;;;;;;;;4992789;28;20028;-77
2022/11/23 08:58:48;;;;;;;19.80;8.73;;;;;;;;;;4993532;28;20049;-77
2022/11/23 09:01:14;;;;;;;18.77;8.50;;;;;;;;;;4993463;28;20034;-77
2022/11/23 09:03:41;;;;;;;15.27;7.85;;;;;;;;;;4984781;28;20041;-78
2022/11/23 09:06:07;;;;;;;28.30;8.93;;;;;;;;;;4977818;28;20030;-78
2022/11/23 09:08:33;;;;;;;17.77;8.35;;;;;;;;;;4975587;28;20482;-78
2022/11/23 09:11:03;;;;;;;16.33;8.25;;;;;;;;;;4981086;28;20040;-77
2022/11/23 09:13:29;;;;;;;18.17;9.10;;;;;;;;;;4984892;28;20477;-78
2022/11/23 09:15:58;;;;;;;19.80;8.82;;;;;;;;;;4985107;28;20041;-78
2022/11/23 09:18:25;;;;;;;14.80;8.07;;;;;;;;;;4977528;28;20034;-78
2022/11/23 09:20:51;;;;;;;14.70;7.65;;;;;;;;;;4976915;28;20584;-78
2022/11/23 09:23:17;;;;;;;20.83;8.32;;;;;;;;;;4979075;28;20466;-78
2022/11/23 09:25:47;;;;;;;18.95;8.65;;;;;;;;;;4986456;28;20026;-78
2022/11/23 09:28:13;;;;;;;15.88;8.52;;;;;;;;;;4980915;28;20077;-78
2022/11/23 09:30:40;;;;;;;17.42;8.40;;;;;;;;;;4980244;28;20496;-78
2022/11/23 09:33:07;;;;;;;14.90;6.55;;;;;;;;;;4984418;28;20037;-78
2022/11/23 09:35:33;;;;;;;19.15;8.52;;;;;;;;;;4982912;28;20030;-78
2022/11/23 09:37:59;;;;;;;22.00;7.72;;;;;;;;;;4977688;28;20031;-78
2022/11/23 09:40:28;;;;;;;18.58;6.80;;;;;;;;;;4986708;28;20050;-77
2022/11/23 09:43:17;;;;;;;16.73;5.33;;;;;;;;;;4974857;28;20039;-77
2022/11/23 09:45:48;;;;;;;12.90;5.03;;;;;;;;;;4954694;28;20089;-77
2022/11/23 09:48:17;;;;;;;10.23;4.20;;;;;;;;;;4980292;28;20109;-78
2022/11/23 09:50:47;;;;;;;14.27;4.57;;;;;;;;;;4988515;28;20027;-77
2022/11/23 09:53:17;;;;;;;12.13;4.55;;;;;;;;;;4991082;28;20101;-78
2022/11/23 09:55:44;;;;;;;14.00;4.38;;;;;;;;;;4979710;28;20034;-78
2022/11/23 09:58:15;;;;;;;9.10;4.05;;;;;;;;;;4986254;28;20031;-77
2022/11/23 10:00:48;;;;;;;12.70;3.90;;;;;;;;;;4994998;28;20058;-78
2022/11/23 10:03:15;;;;;;;9.27;4.65;;;;;;;;;;4980537;28;20589;-78
2022/11/23 10:05:43;;;;;;;9.10;4.03;;;;;;;;;;4986516;28;20473;-78
2022/11/23 10:08:09;;;;;;;9.90;4.47;;;;;;;;;;4988556;28;20062;-78
2022/11/23 10:10:44;;;;;;;12.23;4.13;;;;;;;;;;4986178;28;20410;-78
2022/11/23 10:13:45;;;;;;;11.23;4.70;;;;;;;;;;4978603;28;20027;-78
2022/11/23 10:16:11;;;;;;;8.20;4.20;;;;;;;;;;4923038;29;20042;-77
2022/11/23 10:18:43;;;;;;;10.23;4.30;;;;;;;;;;4955217;28;20042;-77
2022/11/23 10:21:48;;;;;;;12.90;3.85;;;;;;;;;;4966019;28;20041;-78
2022/11/23 10:24:18;;;;;;;9.35;3.55;;;;;;;;;;4933607;29;20040;-77
2022/11/23 10:26:46;;;;;;;10.45;3.33;;;;;;;;;;4933320;29;20055;-78
2022/11/23 10:29:18;;;;;;;12.55;4.13;;;;;;;;;;4953438;28;20050;-78
2022/11/23 10:31:46;;;;;;;10.13;3.53;;;;;;;;;;4990436;28;20034;-78
2022/11/23 10:34:14;;;;;;;13.95;4.10;;;;;;;;;;4982923;28;20033;-78
2022/11/23 10:36:40;;;;;;;11.75;3.00;;;;;;;;;;4989924;28;20396;-78
2022/11/23 10:39:15;;;;;;;12.85;3.08;;;;;;;;;;4986274;28;20030;-77
2022/11/23 10:41:43;;;;;;;14.63;3.80;;;;;;;;;;4973138;28;20030;-77
2022/11/23 10:44:09;;;;;;;7.47;2.95;;;;;;;;;;4983352;28;20030;-77
2022/11/23 10:46:36;;;;;;;7.80;2.60;;;;;;;;;;4986783;28;20108;-77
2022/11/23 10:49:20;;;;;;;12.20;3.22;;;;;;;;;;4985443;28;20077;-77
2022/11/23 10:51:55;;;;;;;11.52;3.33;;;;;;;;;;4983014;28;20026;-77
2022/11/23 10:54:32;;;;;;;8.88;3.58;;;;;;;;;;4987537;28;20041;-78
2022/11/23 10:57:00;;;;;;;10.77;3.92;;;;;;;;;;4986997;28;20396;-77
2022/11/23 10:59:26;;;;;;;11.38;2.80;;;;;;;;;;4985303;28;20528;-76
2022/11/23 11:02:02;;;;;;;11.00;3.38;;;;;;;;;;4984216;28;20019;-76
2022/11/23 11:04:28;;;;;;;8.05;2.72;;;;;;;;;;4983070;28;20026;-76
2022/11/23 11:07:09;;;;;;;12.02;2.60;;;;;;;;;;4985027;28;20026;-76
2022/11/23 11:09:36;;;;;;;12.13;2.92;;;;;;;;;;4983601;28;20035;-77
2022/11/23 11:12:02;;;;;;;13.50;2.70;;;;;;;;;;4979494;28;20109;-76
2022/11/23 11:14:28;;;;;;;9.85;2.50;;;;;;;;;;4985181;28;20089;-77
2022/11/23 11:16:57;;;;;;;16.15;3.35;;;;;;;;;;4988804;28;20037;-77
2022/11/23 11:19:28;;;;;;;6.23;2.10;;;;;;;;;;4982395;28;20074;-77
2022/11/23 11:21:55;;;;;;;14.23;3.17;;;;;;;;;;4979098;28;20034;-77
2022/11/23 11:24:30;;;;;;;10.68;2.30;;;;;;;;;;4989376;28;20105;-77
2022/11/23 11:27:00;;;;;;;10.50;2.38;;;;;;;;;;4986151;28;20033;-77
2022/11/23 11:29:26;;;;;;;;;;;;;;;;;;4989716;28;20026;-77
2022/11/23 11:31:52;;;;;;;12.40;2.88;;;;;;;;;;4980915;28;19940;-75
2022/11/23 11:34:18;;;;;;;11.63;2.45;;;;;;;;;;4982281;28;20073;-76
2022/11/23 11:36:52;;;;;;;8.40;1.52;;;;;;;;;;4984947;28;20400;-76
2022/11/23 11:39:22;;;;;;;10.70;1.70;;;;;;;;;;4981586;28;20041;-76
2022/11/23 11:41:49;;;;;;;10.60;1.70;;;;;;;;;;4984729;28;20742;-76
2022/11/23 11:44:19;;;;;;;11.63;2.38;;;;;;;;;;4987107;28;20061;-76
2022/11/23 11:46:49;;;;;;;5.43;1.60;;;;;;;;;;4985328;28;20046;-76
2022/11/23 11:49:18;;;;;;;14.27;2.20;;;;;;;;;;4979244;28;20029;-76
2022/11/23 11:51:54;;;;;;;13.90;2.20;;;;;;;;;;4979446;28;20040;-76
2022/11/23 11:54:26;;;;;;;11.82;2.60;;;;;;;;;;4991675;28;20469;-76
2022/11/23 11:56:53;;;;;;;9.63;2.20;;;;;;;;;;4994140;28;20027;-76
2022/11/23 11:59:41;;;;;;;6.20;1.60;;;;;;;;;;4984619;28;20389;-76
2022/11/23 12:02:19;;;;;;;9.98;2.00;;;;;;;;;;4978200;28;20500;-76
2022/11/23 12:04:54;;;;;;;10.23;1.58;;;;;;;;;;4982695;28;20113;-77
2022/11/23 12:07:31;;;;;;;7.93;1.60;;;;;;;;;;4988516;28;20037;-76
2022/11/23 12:10:11;;;;;;;14.55;2.38;;;;;;;;;;4994212;28;20530;-77
2022/11/23 12:12:37;;;;;;;10.33;2.57;;;;;;;;;;4978654;28;20105;-77
2022/11/23 12:15:04;;;;;;;9.90;1.63;;;;;;;;;;4974029;28;20750;-76
2022/11/23 12:17:42;;;;;;;10.07;2.05;;;;;;;;;;4974569;28;20077;-76
2022/11/23 12:20:18;;;;;;;6.78;1.63;;;;;;;;;;4985457;28;20392;-77
2022/11/23 12:23:03;;;;;;;9.93;1.80;;;;;;;;;;4977862;28;20449;-77
2022/11/23 12:25:43;;;;;;;10.88;1.95;;;;;;;;;;4994655;28;20030;-77
2022/11/23 12:28:28;;;;;;;5.22;1.50;;;;;;;;;;4995415;28;20030;-77
2022/11/23 12:31:09;;;;;;;10.90;3.05;;;;;;;;;;4986330;28;20034;-77
2022/11/23 12:33:41;;;;;;;9.85;1.50;;;;;;;;;;4982624;28;20448;-77
2022/11/23 12:36:25;;;;;;;5.38;1.50;;;;;;;;;;4986197;28;20026;-77
2022/11/23 12:38:55;;;;;;;12.23;1.60;;;;;;;;;;4982182;28;20042;-77
2022/11/23 12:41:40;;;;;;;6.85;1.63;;;;;;;;;;4990383;28;20101;-77
2022/11/23 12:44:18;;;;;;;5.93;1.85;;;;;;;;;;4998988;28;20035;-77
2022/11/23 12:46:49;;;;;;;11.55;1.75;;;;;;;;;;4988866;28;20054;-77
2022/11/23 12:49:34;;;;;;;12.52;1.65;;;;;;;;;;4980431;28;20033;-77
2022/11/23 12:52:18;;;;;;;13.35;1.83;;;;;;;;;;4992008;28;20315;-78
2022/11/23 12:54:50;;;;;;;5.32;1.17;;;;;;;;;;4985304;28;20463;-77
2022/11/23 12:57:19;;;;;;;6.40;1.30;;;;;;;;;;4978621;28;20488;-78
2022/11/23 12:59:51;;;;;;;7.72;1.35;;;;;;;;;;4991336;28;20033;-78
2022/11/23 13:02:40;;;;;;;11.13;1.98;;;;;;;;;;5000500;28;20030;-77
2022/11/23 13:05:22;;;;;;;4.25;1.67;;;;;;;;;;4965729;28;20046;-77
2022/11/23 13:08:12;;;;;;;10.15;3.15;;;;;;;;;;4981073;28;20097;-77
2022/11/23 13:10:44;;;;;;;8.25;1.58;;;;;;;;;;4983270;28;20057;-77
2022/11/23 13:13:22;;;;;;;8.13;1.58;;;;;;;;;;4986980;28;20030;-77
2022/11/23 13:16:00;;;;;;;12.50;1.73;;;;;;;;;;4996379;28;20034;-77
2022/11/23 13:18:46;;;;;;;7.57;1.45;;;;;;;;;;4983200;28;20045;-77
2022/11/23 13:21:18;;;;;;;6.95;1.67;;;;;;;;;;4975807;28;20054;-77
2022/11/23 13:23:44;;;;;;;7.30;1.75;;;;;;;;;;4983153;28;20117;-77
2022/11/23 13:26:15;;;;;;;6.28;1.25;;;;;;;;;;4985575;28;20381;-77
2022/11/23 13:28:42;;;;;;;9.73;1.67;;;;;;;;;;4982038;28;20087;-77
2022/11/23 13:31:17;;;;;;;12.40;2.83;;;;;;;;;;4983277;28;20145;-77
2022/11/23 13:33:44;;;;;;;8.10;1.63;;;;;;;;;;4987450;28;20030;-77
2022/11/23 13:36:32;;;;;;;11.38;2.15;;;;;;;;;;4984979;28;20070;-77
2022/11/23 13:38:59;;;;;;;10.45;1.48;;;;;;;;;;4979656;28;20108;-77
2022/11/23 13:41:34;;;;;;;6.10;1.70;;;;;;;;;;4985009;28;20504;-77
2022/11/23 13:44:11;;;;;;;10.80;1.77;;;;;;;;;;4981701;28;20041;-77
2022/11/23 13:46:37;;;;;;;8.30;1.83;;;;;;;;;;4981789;28;20054;-77
2022/11/23 13:49:03;;;;;;;8.82;1.80;;;;;;;;;;4983796;28;20444;-76
2022/11/23 13:51:34;;;;;;;5.53;1.52;;;;;;;;;;4983743;28;20030;-77
2022/11/23 13:54:03;;;;;;;7.60;2.40;;;;;;;;;;4986376;28;20034;-77
2022/11/23 13:56:31;;;;;;;4.20;1.60;;;;;;;;;;4979507;28;20089;-77
2022/11/23 13:59:16;;;;;;;7.22;2.83;;;;;;;;;;4984335;28;20053;-77
2022/11/23 14:01:57;;;;;;;8.13;1.90;;;;;;;;;;4968574;28;20421;-77
2022/11/23 14:04:24;;;;;;;7.38;1.65;;;;;;;;;;4981196;28;20478;-77
2022/11/23 14:06:56;;;;;;;6.70;1.35;;;;;;;;;;4979382;28;20097;-76
2022/11/23 14:09:29;;;;;;;6.00;1.52;;;;;;;;;;4978297;28;20022;-76
2022/11/23 14:12:13;;;;;;;9.73;1.65;;;;;;;;;;4993967;28;20165;-76
2022/11/23 14:14:42;;;;;;;6.38;1.40;;;;;;;;;;4984352;28;20027;-77
2022/11/23 14:17:11;;;;;;;6.55;1.63;;;;;;;;;;4977873;28;20117;-76
2022/11/23 14:19:37;;;;;;;7.22;1.38;;;;;;;;;;4984295;28;20045;-77
2022/11/23 14:22:12;;;;;;;5.85;1.40;;;;;;;;;;4981106;28;20023;-77
2022/11/23 14:24:57;;;;;;;4.53;1.40;;;;;;;;;;4980544;28;20023;-77
2022/11/23 14:27:40;;;;;;;5.43;1.50;;;;;;;;;;4983435;28;20027;-75
2022/11/23 14:30:16;;;;;;;5.63;1.55;;;;;;;;;;4979085;28;20034;-76
2022/11/23 14:32:48;;;;;;;5.35;1.27;;;;;;;;;;4986528;28;20225;-77
2022/11/23 14:35:20;;;;;;;4.15;1.23;;;;;;;;;;4987961;28;20034;-76